Time;durP1;ratioP1;P1;durP2;ratioP2;P2;SDS_P1;SDS_P2;PMS_P1;PMS_P2;Temp;Humidity;BMP_temperature;BMP_pressure;BME280_temperature;BME280_humidity;BME280_pressure;Samples;Min_cycle;Max_cycle;Signal;HPM_P1;HPM_P2
2023/10/28 00:01:22;;;;;;;5.07;3.20;;;4.10;99.90;;;;;;5025293;28;20077;-61
2023/10/28 00:03:49;;;;;;;4.60;3.40;;;4.10;99.90;;;;;;5028360;28;20427;-65
2023/10/28 00:06:16;;;;;;;5.72;3.92;;;4.10;99.90;;;;;;5034906;28;20045;-62
2023/10/28 00:08:43;;;;;;;6.35;4.22;;;4.10;99.90;;;;;;5032456;28;20143;-65
2023/10/28 00:11:10;;;;;;;4.30;3.90;;;4.10;99.90;;;;;;5035845;28;20065;-63
2023/10/28 00:13:37;;;;;;;4.13;3.72;;;4.10;99.90;;;;;;5031655;28;20150;-65
2023/10/28 00:16:05;;;;;;;3.45;3.03;;;4.10;99.90;;;;;;5033370;28;20042;-65
2023/10/28 00:18:33;;;;;;;4.85;3.90;;;4.10;99.90;;;;;;5034241;28;20152;-68
2023/10/28 00:21:00;;;;;;;4.78;3.40;;;4.10;99.90;;;;;;5031837;28;20042;-62
2023/10/28 00:23:27;;;;;;;4.38;3.40;;;4.10;99.90;;;;;;5030775;28;20042;-62
2023/10/28 00:26:03;;;;;;;7.13;3.80;;;4.10;99.90;;;;;;5033830;28;20451;-65
2023/10/28 00:28:33;;;;;;;5.40;3.22;;;4.10;99.90;;;;;;5029486;28;20046;-63
2023/10/28 00:31:02;;;;;;;;;;;4.10;99.90;;;;;;5038425;28;20053;-65
2023/10/28 00:33:29;;;;;;;4.18;3.08;;;4.10;99.90;;;;;;5027649;28;19921;-64
2023/10/28 00:35:56;;;;;;;3.85;3.15;;;4.10;99.90;;;;;;5031915;28;20102;-62
2023/10/28 00:38:23;;;;;;;4.57;3.45;;;4.10;99.90;;;;;;5028434;28;20496;-66
2023/10/28 00:40:50;;;;;;;4.05;3.55;;;4.10;99.90;;;;;;5031738;28;20049;-63
2023/10/28 00:43:24;;;;;;;3.47;3.17;;;4.10;99.90;;;;;;5035977;28;20052;-61
2023/10/28 00:45:51;;;;;;;4.55;3.83;;;4.10;99.90;;;;;;5034980;28;20034;-65
2023/10/28 00:48:19;;;;;;;6.18;4.15;;;4.10;99.90;;;;;;5027954;28;20077;-62
2023/10/28 00:50:46;;;;;;;5.93;3.58;;;4.10;99.90;;;;;;5030583;28;20037;-63
2023/10/28 00:53:13;;;;;;;3.25;2.85;;;4.10;99.90;;;;;;5029215;28;20466;-70
2023/10/28 00:55:40;;;;;;;5.55;3.72;;;4.10;99.90;;;;;;5034915;28;20051;-62
2023/10/28 00:58:09;;;;;;;5.85;3.15;;;4.00;99.90;;;;;;5023992;28;20056;-64
2023/10/28 01:00:36;;;;;;;7.30;3.40;;;4.00;99.90;;;;;;5026888;28;20052;-63
2023/10/28 01:03:03;;;;;;;6.65;3.38;;;4.00;99.90;;;;;;5034387;28;20065;-72
2023/10/28 01:05:33;;;;;;;3.60;3.25;;;4.00;99.90;;;;;;5034215;28;20064;-61
2023/10/28 01:08:00;;;;;;;3.58;3.22;;;4.00;99.90;;;;;;5028242;28;20077;-62
2023/10/28 01:10:29;;;;;;;5.47;3.05;;;4.00;99.90;;;;;;5031595;28;20487;-62
2023/10/28 01:12:58;;;;;;;4.38;3.13;;;4.00;99.90;;;;;;5026999;28;20041;-62
2023/10/28 01:15:26;;;;;;;3.13;2.83;;;4.00;99.90;;;;;;5029843;28;20407;-62
2023/10/28 01:17:53;;;;;;;4.22;3.03;;;4.00;99.90;;;;;;5034544;28;20053;-63
2023/10/28 01:20:20;;;;;;;3.95;3.22;;;4.00;99.90;;;;;;5034092;28;20045;-61
2023/10/28 01:22:47;;;;;;;4.82;3.17;;;4.10;99.90;;;;;;5039404;28;20045;-63
2023/10/28 01:25:15;;;;;;;3.75;3.45;;;4.10;99.90;;;;;;5032970;28;20049;-70
2023/10/28 01:27:43;;;;;;;6.60;3.47;;;4.00;99.90;;;;;;5029880;28;20045;-66
2023/10/28 01:30:13;;;;;;;4.55;2.80;;;4.00;99.90;;;;;;5029289;28;20056;-63
2023/10/28 01:32:42;;;;;;;3.42;3.13;;;4.00;99.90;;;;;;5033361;28;20271;-61
2023/10/28 01:35:10;;;;;;;5.75;3.72;;;4.00;99.90;;;;;;5030960;28;20099;-62
2023/10/28 01:37:37;;;;;;;3.95;3.50;;;4.00;99.90;;;;;;5027033;28;20077;-64
2023/10/28 01:40:14;;;;;;;4.53;3.25;;;4.00;99.90;;;;;;5024952;28;20049;-68
2023/10/28 01:42:44;;;;;;;3.55;2.85;;;4.00;99.90;;;;;;5015732;28;20072;-66
2023/10/28 01:45:13;;;;;;;4.88;4.18;;;3.90;99.90;;;;;;5032508;28;20045;-65
2023/10/28 01:47:42;;;;;;;3.90;3.50;;;3.90;99.90;;;;;;5031650;28;20040;-63
2023/10/28 01:50:13;;;;;;;4.78;3.75;;;3.90;99.90;;;;;;5026489;28;20403;-62
2023/10/28 01:52:42;;;;;;;6.43;4.20;;;3.90;99.90;;;;;;5026852;28;20049;-61
2023/10/28 01:55:11;;;;;;;4.05;3.63;;;3.90;99.90;;;;;;5030072;28;20076;-64
2023/10/28 01:57:39;;;;;;;6.80;4.72;;;3.90;99.90;;;;;;5030615;28;20044;-61
2023/10/28 02:00:12;;;;;;;5.93;3.45;;;3.90;99.90;;;;;;5028669;28;20110;-65
2023/10/28 02:02:42;;;;;;;5.53;4.05;;;3.80;99.90;;;;;;5025380;28;20057;-64
2023/10/28 02:05:10;;;;;;;3.78;3.47;;;3.80;99.90;;;;;;5033334;28;20060;-64
2023/10/28 02:07:38;;;;;;;4.10;3.80;;;3.80;99.90;;;;;;5036409;28;20052;-62
2023/10/28 02:10:05;;;;;;;4.97;4.47;;;3.80;99.90;;;;;;5031377;28;20084;-67
2023/10/28 02:12:34;;;;;;;4.72;3.80;;;3.80;99.90;;;;;;5028795;28;20051;-65
2023/10/28 02:15:03;;;;;;;6.47;3.85;;;3.80;99.90;;;;;;5026438;28;20053;-62
2023/10/28 02:17:30;;;;;;;3.65;3.35;;;3.80;99.90;;;;;;5032438;28;20473;-61
2023/10/28 02:19:57;;;;;;;4.35;3.10;;;3.80;99.90;;;;;;5026845;28;20053;-65
2023/10/28 02:22:24;;;;;;;4.90;4.15;;;3.80;99.90;;;;;;5027771;28;20049;-64
2023/10/28 02:24:51;;;;;;;5.22;4.00;;;3.80;99.90;;;;;;5028917;28;20486;-66
2023/10/28 02:27:18;;;;;;;4.65;3.95;;;3.80;99.90;;;;;;5024452;28;20396;-69
2023/10/28 02:29:45;;;;;;;5.57;4.30;;;3.80;99.90;;;;;;5032972;28;20045;-63
2023/10/28 02:32:13;;;;;;;5.10;4.50;;;3.80;99.90;;;;;;5032450;28;20076;-66
2023/10/28 02:34:41;;;;;;;6.65;4.60;;;3.90;99.90;;;;;;5034019;28;20049;-61
2023/10/28 02:37:10;;;;;;;4.40;3.88;;;3.90;99.90;;;;;;5032369;28;20041;-62
2023/10/28 02:39:37;;;;;;;4.40;3.58;;;3.80;99.90;;;;;;5025733;28;20396;-65
2023/10/28 02:42:04;;;;;;;6.68;5.47;;;3.80;99.90;;;;;;5034571;28;20033;-64
2023/10/28 02:44:32;;;;;;;6.53;5.10;;;3.90;99.90;;;;;;5023361;28;20045;-62
2023/10/28 02:46:59;;;;;;;5.97;5.00;;;3.90;99.90;;;;;;5025667;28;20037;-61
2023/10/28 02:49:27;;;;;;;5.68;4.85;;;3.90;99.90;;;;;;5029112;28;20065;-65
2023/10/28 02:51:54;;;;;;;6.22;4.57;;;3.90;99.90;;;;;;5027032;28;20048;-63
2023/10/28 02:54:21;;;;;;;5.93;4.85;;;3.90;99.90;;;;;;5032411;28;20093;-62
2023/10/28 02:56:48;;;;;;;6.57;5.60;;;3.90;99.90;;;;;;5028754;28;20045;-63
2023/10/28 02:59:15;;;;;;;7.00;5.18;;;3.90;99.90;;;;;;5024047;28;20119;-65
2023/10/28 03:01:42;;;;;;;8.45;5.47;;;3.90;99.90;;;;;;5028933;28;20442;-62
2023/10/28 03:04:10;;;;;;;7.53;6.13;;;3.90;99.90;;;;;;5030192;28;20041;-62
2023/10/28 03:06:38;;;;;;;5.72;5.20;;;3.90;99.90;;;;;;5032846;28;20053;-68
2023/10/28 03:09:04;;;;;;;5.57;4.97;;;3.90;99.90;;;;;;5031653;28;21018;-65
2023/10/28 03:11:33;;;;;;;4.53;4.05;;;3.90;99.90;;;;;;5029103;28;20037;-62
2023/10/28 03:14:00;;;;;;;5.70;5.07;;;3.90;99.90;;;;;;5027735;28;20053;-69
2023/10/28 03:16:28;;;;;;;6.00;4.75;;;3.90;99.90;;;;;;5030813;28;20052;-63
2023/10/28 03:18:55;;;;;;;5.40;4.88;;;3.90;99.90;;;;;;5035962;28;20049;-61
2023/10/28 04:29:16;;;;;;;3.30;2.97;;;3.90;99.90;;;;;;5061043;28;20046;-61
2023/10/28 04:31:43;;;;;;;3.40;3.10;;;3.90;99.90;;;;;;5055414;28;20453;-63
2023/10/28 04:34:10;;;;;;;3.92;3.55;;;3.80;99.90;;;;;;5053461;28;20875;-63
2023/10/28 04:36:37;;;;;;;3.17;2.88;;;3.80;99.90;;;;;;5039171;28;20135;-67
2023/10/28 04:39:05;;;;;;;3.47;2.95;;;3.80;99.90;;;;;;5054241;28;20131;-62
2023/10/28 04:41:32;;;;;;;4.13;3.65;;;3.80;99.90;;;;;;5051070;28;20106;-67
2023/10/28 04:44:01;;;;;;;4.70;3.65;;;3.80;99.90;;;;;;5063011;28;20083;-61
2023/10/28 04:46:29;;;;;;;3.72;3.42;;;3.80;99.90;;;;;;5056025;28;20413;-62
2023/10/28 04:48:57;;;;;;;5.00;3.90;;;3.80;99.90;;;;;;5052513;28;20072;-64
2023/10/28 04:51:24;;;;;;;8.75;3.95;;;3.80;99.90;;;;;;5050782;28;20459;-61
2023/10/28 04:53:51;;;;;;;4.38;3.95;;;3.80;99.90;;;;;;5047992;28;20073;-62
2023/10/28 04:56:18;;;;;;;4.03;3.63;;;3.80;99.90;;;;;;5051162;28;20530;-63
2023/10/28 04:58:45;;;;;;;5.40;4.72;;;3.80;99.90;;;;;;5058295;28;20047;-63
2023/10/28 05:01:12;;;;;;;4.38;3.53;;;3.80;99.90;;;;;;5045772;28;20045;-62
2023/10/28 05:03:39;;;;;;;4.25;3.85;;;3.80;99.90;;;;;;5045181;28;20059;-61
2023/10/28 05:06:09;;;;;;;4.03;3.15;;;3.70;99.90;;;;;;5058782;28;20064;-63
2023/10/28 05:08:37;;;;;;;4.15;3.58;;;3.70;99.90;;;;;;5050736;28;20073;-63
2023/10/28 05:11:04;;;;;;;5.35;3.22;;;3.70;99.90;;;;;;5060450;28;20045;-69
2023/10/28 05:13:31;;;;;;;5.40;3.88;;;3.70;99.90;;;;;;5045957;28;20041;-64
2023/10/28 05:15:58;;;;;;;4.95;3.70;;;3.70;99.90;;;;;;5050175;28;20080;-64
2023/10/28 05:18:26;;;;;;;5.38;4.72;;;3.80;99.90;;;;;;5054352;28;20036;-62
2023/10/28 05:20:53;;;;;;;4.18;3.80;;;3.80;99.90;;;;;;5050295;28;20124;-62
2023/10/28 05:23:20;;;;;;;6.55;4.68;;;3.70;99.90;;;;;;5053617;28;20387;-64
2023/10/28 05:25:47;;;;;;;5.07;4.55;;;3.80;99.90;;;;;;5042005;28;20049;-65
2023/10/28 05:28:13;;;;;;;5.75;4.60;;;3.80;99.90;;;;;;5050025;28;20045;-66
2023/10/28 05:30:40;;;;;;;5.35;4.38;;;3.80;99.90;;;;;;5036802;28;20124;-63
2023/10/28 05:33:07;;;;;;;4.35;3.92;;;3.80;99.90;;;;;;5030586;28;20033;-62
2023/10/28 05:35:34;;;;;;;5.05;4.32;;;3.80;99.90;;;;;;5033533;28;20041;-61
2023/10/28 05:38:01;;;;;;;5.30;4.18;;;3.80;99.90;;;;;;5030192;28;20040;-65
2023/10/28 05:40:28;;;;;;;8.05;4.72;;;3.80;99.90;;;;;;5029136;28;20049;-64
2023/10/28 05:42:55;;;;;;;5.70;5.20;;;3.80;99.90;;;;;;5034454;28;20068;-62
2023/10/28 05:45:22;;;;;;;5.03;4.53;;;3.80;99.90;;;;;;5034561;28;20041;-63
2023/10/28 05:47:49;;;;;;;7.88;4.90;;;3.80;99.90;;;;;;5030939;28;20364;-63
2023/10/28 05:50:17;;;;;;;9.75;6.00;;;3.80;99.90;;;;;;5033008;28;20568;-61
2023/10/28 05:52:44;;;;;;;5.32;4.93;;;3.80;99.90;;;;;;5032911;28;20068;-65
2023/10/28 05:55:12;;;;;;;5.93;5.32;;;3.80;99.90;;;;;;5032435;28;20092;-61
2023/10/28 05:57:40;;;;;;;6.80;5.25;;;3.80;99.90;;;;;;5036584;28;20041;-65
2023/10/28 06:00:11;;;;;;;5.80;5.25;;;3.80;99.90;;;;;;5033747;28;20467;-64
2023/10/28 06:02:38;;;;;;;6.72;6.05;;;3.80;99.90;;;;;;5038143;28;20057;-64
2023/10/28 06:05:06;;;;;;;5.45;4.88;;;3.80;99.90;;;;;;5029881;28;20479;-62
2023/10/28 06:07:33;;;;;;;6.10;5.15;;;3.90;99.90;;;;;;5029217;28;20100;-67
2023/10/28 06:10:00;;;;;;;4.63;4.18;;;3.90;99.90;;;;;;5031478;28;20115;-63
2023/10/28 06:12:27;;;;;;;7.68;6.30;;;3.90;99.90;;;;;;5029708;28;20428;-64
2023/10/28 06:14:54;;;;;;;4.78;4.15;;;3.90;99.90;;;;;;5034723;28;20487;-67
2023/10/28 06:17:21;;;;;;;5.13;4.47;;;3.90;99.90;;;;;;5035054;28;20064;-63
2023/10/28 06:19:48;;;;;;;5.78;4.03;;;4.00;99.90;;;;;;5031767;28;20049;-73
2023/10/28 06:22:15;;;;;;;9.27;5.05;;;4.00;99.90;;;;;;5031045;28;20411;-68
2023/10/28 06:24:42;;;;;;;4.35;3.08;;;4.00;99.90;;;;;;5032117;28;20119;-61
2023/10/28 06:27:09;;;;;;;3.83;3.20;;;4.00;99.90;;;;;;5036199;28;20049;-65
2023/10/28 06:29:37;;;;;;;3.42;3.13;;;4.00;99.90;;;;;;5034395;28;20103;-64
2023/10/28 06:32:06;;;;;;;3.35;2.95;;;4.10;99.90;;;;;;5053552;28;20044;-65
2023/10/28 06:34:33;;;;;;;4.28;3.03;;;4.10;99.90;;;;;;5057615;28;20049;-61
2023/10/28 06:37:00;;;;;;;5.03;3.47;;;4.10;99.90;;;;;;5050977;28;20044;-69
2023/10/28 06:39:27;;;;;;;5.55;3.50;;;4.20;99.90;;;;;;5054625;28;20040;-62
2023/10/28 06:41:54;;;;;;;5.82;3.97;;;4.20;99.90;;;;;;5049878;28;20056;-62
2023/10/28 06:44:23;;;;;;;4.65;3.60;;;4.20;99.90;;;;;;5050409;28;20044;-62
2023/10/28 06:46:50;;;;;;;3.88;2.65;;;4.20;99.90;;;;;;5049233;28;20094;-62
2023/10/28 06:49:17;;;;;;;5.63;3.13;;;4.20;99.90;;;;;;5046100;28;20056;-61
2023/10/28 06:51:44;;;;;;;3.88;3.50;;;4.30;99.90;;;;;;5049173;28;20041;-62
2023/10/28 06:54:12;;;;;;;4.15;3.85;;;4.20;99.90;;;;;;5050895;28;20072;-66
2023/10/28 06:56:39;;;;;;;5.05;4.55;;;4.20;99.90;;;;;;5053180;28;20131;-62
2023/10/28 06:59:06;;;;;;;5.85;5.18;;;4.20;99.90;;;;;;5054188;28;20119;-66
2023/10/28 07:01:34;;;;;;;2.85;2.65;;;4.20;99.90;;;;;;5050219;28;20041;-62
2023/10/28 07:04:01;;;;;;;3.25;2.97;;;4.20;99.90;;;;;;5046367;28;20041;-72
2023/10/28 07:06:28;;;;;;;3.97;2.58;;;4.20;99.90;;;;;;5052282;28;20064;-62
2023/10/28 07:08:55;;;;;;;3.28;2.47;;;4.30;99.90;;;;;;5047653;28;20071;-61
2023/10/28 07:11:22;;;;;;;2.95;2.55;;;4.30;99.90;;;;;;5045494;28;20056;-67
2023/10/28 07:13:49;;;;;;;4.70;2.45;;;4.30;99.90;;;;;;5053709;28;20099;-65
2023/10/28 07:16:18;;;;;;;2.92;2.03;;;4.30;99.90;;;;;;5049115;28;20041;-62
2023/10/28 07:18:45;;;;;;;3.35;1.98;;;4.30;99.90;;;;;;5052551;28;20051;-64
2023/10/28 07:21:13;;;;;;;2.88;2.60;;;4.40;99.90;;;;;;5051429;28;20048;-63
2023/10/28 07:23:41;;;;;;;3.00;2.17;;;4.40;99.90;;;;;;5054446;28;20045;-61
2023/10/28 07:26:08;;;;;;;2.03;1.83;;;4.40;99.90;;;;;;5052811;28;20637;-62
2023/10/28 07:28:37;;;;;;;2.80;2.40;;;4.50;99.90;;;;;;5051763;28;20458;-62
2023/10/28 07:31:05;;;;;;;1.98;1.88;;;4.50;99.90;;;;;;5052126;28;20053;-66
2023/10/28 07:33:33;;;;;;;3.90;2.40;;;4.50;99.90;;;;;;5056554;28;20107;-70
2023/10/28 07:36:04;;;;;;;4.20;3.28;;;4.60;99.90;;;;;;5052218;28;20071;-62
2023/10/28 07:38:31;;;;;;;;;;;4.60;99.90;;;;;;5051750;28;20049;-68
2023/10/28 07:40:58;;;;;;;7.10;3.08;;;4.60;99.90;;;;;;5057271;28;20294;-62
2023/10/28 07:43:26;;;;;;;3.00;2.80;;;4.60;99.90;;;;;;5052861;28;20041;-64
2023/10/28 07:45:53;;;;;;;2.67;2.30;;;4.70;99.90;;;;;;5059476;28;20094;-65
2023/10/28 07:48:20;;;;;;;2.58;2.38;;;4.70;99.90;;;;;;5052984;28;20052;-61
2023/10/28 07:50:48;;;;;;;3.55;2.97;;;4.70;99.90;;;;;;5051039;28;20474;-62
2023/10/28 07:53:17;;;;;;;2.33;2.03;;;4.70;99.90;;;;;;5048298;28;20126;-65
2023/10/28 07:55:44;;;;;;;2.83;2.60;;;4.80;99.90;;;;;;5050990;28;20049;-62
2023/10/28 07:58:11;;;;;;;3.10;2.85;;;4.80;99.90;;;;;;5053371;28;21079;-67
2023/10/28 08:00:38;;;;;;;4.55;3.15;;;4.80;99.90;;;;;;5055632;28;20049;-64
2023/10/28 08:03:05;;;;;;;2.95;2.42;;;4.80;99.90;;;;;;5052300;28;20045;-71
2023/10/28 08:05:32;;;;;;;3.70;2.55;;;4.70;99.90;;;;;;5047824;28;20040;-62
2023/10/28 08:07:59;;;;;;;2.80;2.13;;;4.80;99.90;;;;;;5054115;28;20127;-62
2023/10/28 08:10:26;;;;;;;6.18;2.70;;;4.80;99.90;;;;;;5058279;28;20421;-62
2023/10/28 08:12:54;;;;;;;3.25;2.45;;;4.80;99.90;;;;;;5050428;28;20068;-61
2023/10/28 08:15:21;;;;;;;2.97;2.78;;;4.80;99.90;;;;;;5053282;28;20052;-61
2023/10/28 08:17:50;;;;;;;3.17;2.38;;;4.80;99.90;;;;;;5049220;28;20045;-62
2023/10/28 08:20:18;;;;;;;5.15;2.40;;;4.80;99.90;;;;;;5055419;28;20060;-62
2023/10/28 08:22:45;;;;;;;3.63;2.30;;;4.80;99.90;;;;;;5053209;28;20492;-68
2023/10/28 08:25:16;;;;;;;3.47;2.22;;;4.90;99.90;;;;;;5056732;28;20049;-62
2023/10/28 08:27:44;;;;;;;4.85;2.78;;;4.80;99.90;;;;;;5049822;28;20064;-62
2023/10/28 08:30:16;;;;;;;3.13;2.10;;;4.80;99.90;;;;;;5048396;28;20056;-62
2023/10/28 08:32:44;;;;;;;2.92;2.40;;;4.80;99.90;;;;;;5053859;28;20045;-61
2023/10/28 08:35:12;;;;;;;5.28;2.88;;;4.80;99.90;;;;;;5051848;28;20033;-63
2023/10/28 08:37:39;;;;;;;4.63;2.08;;;4.90;99.90;;;;;;5050311;28;20059;-65
2023/10/28 08:40:10;;;;;;;2.85;2.58;;;4.90;99.90;;;;;;5052843;28;20037;-69
2023/10/28 08:42:38;;;;;;;5.53;3.20;;;5.00;99.90;;;;;;5050111;28;20103;-62
2023/10/28 08:45:08;;;;;;;2.95;2.72;;;5.00;99.90;;;;;;5054837;28;20128;-68
2023/10/28 08:47:38;;;;;;;4.70;2.97;;;5.00;99.90;;;;;;5047702;28;20052;-62
2023/10/28 08:50:09;;;;;;;5.05;2.63;;;5.10;99.90;;;;;;5052092;28;20328;-63
2023/10/28 08:52:37;;;;;;;4.95;3.42;;;5.10;99.90;;;;;;5046497;28;20048;-65
2023/10/28 08:55:07;;;;;;;5.35;3.95;;;5.20;99.90;;;;;;5049427;28;20144;-67
2023/10/28 08:57:35;;;;;;;3.20;2.90;;;5.20;99.90;;;;;;5059754;28;20045;-61
2023/10/28 09:00:11;;;;;;;2.90;2.60;;;5.20;99.90;;;;;;5052333;28;20041;-66
2023/10/28 09:02:41;;;;;;;3.25;2.95;;;5.30;99.90;;;;;;5057089;28;20044;-62
2023/10/28 09:05:08;;;;;;;;;;;5.40;99.90;;;;;;5050060;28;20044;-61
2023/10/28 09:07:35;;;;;;;3.25;2.70;;;5.50;99.90;;;;;;5048755;28;19920;-65
2023/10/28 09:10:04;;;;;;;2.90;2.70;;;5.50;99.90;;;;;;5051845;28;20107;-66
2023/10/28 09:12:32;;;;;;;4.60;2.50;;;5.60;99.90;;;;;;5049325;28;20483;-62
2023/10/28 09:14:59;;;;;;;2.80;2.47;;;5.70;99.90;;;;;;5049346;28;20556;-63
2023/10/28 09:17:26;;;;;;;3.78;2.88;;;5.90;99.90;;;;;;5057953;28;20084;-64
2023/10/28 09:19:53;;;;;;;2.63;2.42;;;6.00;99.90;;;;;;5051533;28;20054;-64
2023/10/28 09:22:20;;;;;;;2.85;2.55;;;6.00;99.90;;;;;;5048979;28;20396;-62
2023/10/28 09:24:47;;;;;;;3.10;2.90;;;6.10;99.90;;;;;;5055291;28;20072;-61
2023/10/28 09:27:19;;;;;;;3.63;3.28;;;6.10;99.90;;;;;;5049978;28;20041;-61
2023/10/28 09:29:46;;;;;;;4.10;2.90;;;6.10;99.90;;;;;;5054466;28;20049;-63
2023/10/28 09:32:14;;;;;;;2.97;1.77;;;6.10;99.90;;;;;;5054519;28;20045;-63
2023/10/28 09:34:41;;;;;;;10.73;3.40;;;6.20;99.90;;;;;;5050849;28;20037;-67
2023/10/28 09:37:08;;;;;;;3.13;2.85;;;6.20;99.90;;;;;;5049609;28;20041;-62
2023/10/28 09:39:36;;;;;;;3.92;3.15;;;6.20;99.90;;;;;;5046884;28;20234;-66
2023/10/28 09:42:04;;;;;;;3.20;2.60;;;6.30;99.90;;;;;;5052228;28;20043;-69
2023/10/28 09:44:34;;;;;;;3.22;2.65;;;6.30;99.90;;;;;;5057149;28;20045;-63
2023/10/28 09:47:03;;;;;;;2.75;1.98;;;6.30;99.90;;;;;;5030396;28;20438;-62
2023/10/28 09:49:31;;;;;;;2.13;1.83;;;6.40;99.90;;;;;;5053373;28;20107;-61
2023/10/28 09:52:06;;;;;;;2.92;1.75;;;6.30;99.90;;;;;;5048454;28;20431;-62
2023/10/28 09:54:36;;;;;;;1.45;1.35;;;6.30;99.90;;;;;;5048539;28;20045;-61
2023/10/28 09:57:04;;;;;;;2.47;2.10;;;6.30;99.90;;;;;;5050785;28;20041;-69
2023/10/28 09:59:37;;;;;;;2.38;1.88;;;6.30;99.90;;;;;;5051924;28;20053;-61
2023/10/28 10:02:26;;;;;;;4.38;2.42;;;6.30;99.90;;;;;;5055085;28;20048;-64
2023/10/28 10:05:15;;;;;;;4.80;1.60;;;6.30;99.90;;;;;;5049437;28;20541;-62
2023/10/28 10:07:42;;;;;;;3.35;2.15;;;6.30;99.90;;;;;;5047601;28;20044;-61
2023/10/28 10:10:13;;;;;;;1.48;1.38;;;6.30;99.90;;;;;;5050147;28;20048;-64
2023/10/28 10:12:40;;;;;;;1.98;1.75;;;6.30;99.90;;;;;;5049714;28;20033;-70
2023/10/28 10:15:15;;;;;;;4.43;1.55;;;6.30;99.90;;;;;;5047565;28;20041;-64
2023/10/28 10:18:04;;;;;;;6.18;2.55;;;6.30;99.90;;;;;;5051627;28;20045;-61
2023/10/28 10:20:33;;;;;;;2.60;2.38;;;6.30;99.90;;;;;;5058918;28;20049;-63
2023/10/28 10:23:01;;;;;;;2.42;1.83;;;6.30;99.90;;;;;;5053362;28;20033;-65
2023/10/28 10:25:41;;;;;;;2.38;1.98;;;6.40;99.90;;;;;;5055073;28;20564;-65
2023/10/28 10:28:15;;;;;;;4.05;1.98;;;6.30;99.90;;;;;;5045127;28;20556;-66
2023/10/28 10:30:42;;;;;;;3.08;2.40;;;6.30;99.90;;;;;;5052016;28;20052;-63
2023/10/28 10:33:12;;;;;;;2.72;2.53;;;6.30;99.90;;;;;;5056909;28;20043;-63
2023/10/28 10:35:45;;;;;;;2.42;1.90;;;6.30;99.90;;;;;;5051649;28;20049;-69
2023/10/28 10:38:13;;;;;;;2.30;2.10;;;6.30;99.90;;;;;;5047091;28;20057;-67
2023/10/28 10:40:52;;;;;;;2.35;2.00;;;6.40;99.90;;;;;;5054925;28;20044;-62
2023/10/28 10:43:21;;;;;;;6.07;1.55;;;6.40;99.90;;;;;;5048041;28;20049;-67
2023/10/28 10:45:51;;;;;;;2.47;1.88;;;6.50;99.90;;;;;;5049070;28;20036;-62
2023/10/28 10:48:18;;;;;;;1.95;1.70;;;6.50;99.90;;;;;;5047256;28;20079;-73
2023/10/28 10:50:46;;;;;;;11.13;2.28;;;6.60;99.90;;;;;;5050461;28;20124;-62
2023/10/28 10:53:13;;;;;;;2.15;1.83;;;6.70;99.90;;;;;;5048341;28;20041;-66
2023/10/28 10:55:40;;;;;;;3.25;1.52;;;6.70;99.90;;;;;;5048365;28;20128;-62
2023/10/28 10:58:07;;;;;;;2.50;1.60;;;6.80;99.90;;;;;;5049388;28;20499;-69
2023/10/28 11:00:34;;;;;;;1.30;1.15;;;6.80;99.90;;;;;;5057174;28;20107;-62
2023/10/28 11:03:03;;;;;;;1.35;1.25;;;6.90;99.90;;;;;;5043290;28;20047;-64
2023/10/28 11:05:31;;;;;;;1.88;1.77;;;6.80;99.90;;;;;;5048656;28;20047;-62
2023/10/28 11:07:58;;;;;;;2.00;1.77;;;6.90;99.90;;;;;;5051504;28;20041;-62
2023/10/28 11:10:25;;;;;;;3.17;1.40;;;6.90;99.90;;;;;;5051323;28;20099;-62
2023/10/28 11:12:53;;;;;;;2.20;1.40;;;6.90;99.90;;;;;;5053577;28;20048;-64
2023/10/28 11:15:22;;;;;;;2.40;2.20;;;7.00;99.90;;;;;;5050478;28;20489;-63
2023/10/28 11:17:52;;;;;;;3.22;1.92;;;6.90;99.90;;;;;;5047659;28;20055;-64
2023/10/28 11:20:20;;;;;;;2.33;1.75;;;6.90;99.90;;;;;;5053376;28;20444;-63
2023/10/28 11:22:48;;;;;;;2.10;2.00;;;6.90;99.90;;;;;;5046248;28;20529;-65
2023/10/28 11:25:15;;;;;;;3.05;1.65;;;6.90;99.90;;;;;;5048289;28;20048;-65
2023/10/28 11:27:42;;;;;;;3.22;2.28;;;6.90;99.90;;;;;;5053941;28;20044;-65
2023/10/28 11:30:10;;;;;;;3.80;1.63;;;6.80;99.90;;;;;;5047298;28;20065;-65
2023/10/28 11:32:41;;;;;;;2.65;1.88;;;6.80;99.90;;;;;;5044955;28;20593;-63
2023/10/28 11:35:11;;;;;;;2.03;1.83;;;6.70;99.90;;;;;;5046289;28;20076;-63
2023/10/28 11:37:39;;;;;;;4.97;1.90;;;6.70;99.90;;;;;;5045758;28;20148;-67
2023/10/28 11:40:09;;;;;;;2.72;1.80;;;6.60;99.90;;;;;;5047933;28;21096;-66
2023/10/28 11:42:37;;;;;;;3.20;1.90;;;6.60;99.90;;;;;;5048798;28;20041;-62
2023/10/28 11:45:09;;;;;;;1.95;1.70;;;6.50;99.90;;;;;;5054564;28;20029;-69
2023/10/28 11:47:36;;;;;;;1.75;1.55;;;6.60;99.90;;;;;;5047280;28;20059;-63
2023/10/28 11:50:05;;;;;;;2.55;1.80;;;6.60;99.90;;;;;;5047434;28;20041;-66
2023/10/28 11:52:35;;;;;;;1.50;1.40;;;6.60;99.90;;;;;;5050246;28;20099;-61
2023/10/28 11:55:05;;;;;;;2.55;2.30;;;6.60;99.90;;;;;;5048123;28;20064;-64
2023/10/28 11:57:35;;;;;;;4.85;3.03;;;6.60;99.90;;;;;;5049821;28;20123;-65
2023/10/28 12:00:04;;;;;;;2.55;2.00;;;6.60;99.90;;;;;;5047556;28;20137;-68
2023/10/28 12:02:31;;;;;;;1.85;1.58;;;6.50;99.90;;;;;;5047652;28;20044;-61
2023/10/28 12:04:58;;;;;;;2.20;1.85;;;6.50;99.90;;;;;;5050727;28;20033;-63
2023/10/28 12:07:25;;;;;;;3.92;1.83;;;6.60;99.90;;;;;;5055294;28;20041;-69
2023/10/28 12:09:52;;;;;;;1.95;1.73;;;6.50;99.90;;;;;;5051458;28;20072;-63
2023/10/28 12:12:19;;;;;;;1.80;1.67;;;6.50;99.90;;;;;;5033981;28;20449;-70
2023/10/28 12:14:47;;;;;;;3.15;2.75;;;6.50;99.90;;;;;;5049411;28;20116;-61
2023/10/28 12:17:14;;;;;;;2.08;1.90;;;6.50;99.90;;;;;;5049217;28;20041;-64
2023/10/28 12:19:41;;;;;;;2.80;2.03;;;6.50;99.90;;;;;;5051240;28;20127;-63
2023/10/28 12:22:09;;;;;;;2.15;1.58;;;6.50;99.90;;;;;;5051535;28;20131;-64
2023/10/28 12:24:36;;;;;;;2.60;1.70;;;6.50;99.90;;;;;;5062883;28;20033;-61
2023/10/28 12:27:03;;;;;;;4.05;1.65;;;6.50;99.90;;;;;;5052663;28;20045;-65
2023/10/28 12:29:30;;;;;;;4.07;1.70;;;6.40;99.90;;;;;;5057887;28;20102;-64
2023/10/28 12:31:57;;;;;;;2.47;1.70;;;6.40;99.90;;;;;;5052402;28;20044;-64
2023/10/28 12:34:24;;;;;;;4.78;1.55;;;6.40;99.90;;;;;;5049702;28;20179;-68
2023/10/28 12:36:51;;;;;;;5.63;2.78;;;6.40;99.90;;;;;;5057974;28;20041;-62
2023/10/28 12:39:18;;;;;;;2.33;1.45;;;6.40;99.90;;;;;;5055990;28;20076;-63
2023/10/28 12:41:46;;;;;;;1.58;1.48;;;6.30;99.90;;;;;;5051724;28;20517;-64
2023/10/28 12:44:13;;;;;;;1.73;1.30;;;6.40;99.90;;;;;;5061464;28;20041;-61
2023/10/28 12:46:40;;;;;;;1.92;1.52;;;6.30;99.90;;;;;;5049170;28;20049;-63
2023/10/28 12:49:09;;;;;;;2.85;1.50;;;6.40;99.90;;;;;;5054027;28;20045;-68
2023/10/28 12:51:36;;;;;;;3.08;2.00;;;6.40;99.90;;;;;;5048382;28;20061;-62
2023/10/28 12:54:06;;;;;;;2.13;1.65;;;6.30;99.90;;;;;;5051611;28;20039;-67
2023/10/28 12:56:34;;;;;;;4.25;2.00;;;6.30;99.90;;;;;;5051751;28;20450;-65
2023/10/28 12:59:01;;;;;;;3.00;1.50;;;6.40;99.90;;;;;;5055547;28;20381;-64
2023/10/28 13:01:28;;;;;;;2.90;2.00;;;6.40;99.90;;;;;;5049119;28;20520;-65
2023/10/28 13:03:58;;;;;;;2.95;1.42;;;6.30;99.90;;;;;;5061385;28;20037;-61
2023/10/28 13:06:25;;;;;;;6.00;1.77;;;6.30;99.90;;;;;;5053735;28;20127;-62
2023/10/28 13:08:53;;;;;;;3.22;1.80;;;6.30;99.90;;;;;;5053167;28;20476;-62
2023/10/28 13:11:20;;;;;;;3.10;1.75;;;6.30;99.90;;;;;;5051787;28;20049;-62
2023/10/28 13:13:46;;;;;;;2.10;1.48;;;6.20;99.90;;;;;;5049005;28;20474;-61
2023/10/28 13:16:13;;;;;;;2.78;1.75;;;6.30;99.90;;;;;;5058231;28;20073;-61
2023/10/28 13:18:41;;;;;;;3.45;1.65;;;6.20;99.90;;;;;;5049842;28;20084;-63
2023/10/28 13:21:10;;;;;;;2.80;1.67;;;6.20;99.90;;;;;;5050024;28;20065;-63
2023/10/28 13:23:37;;;;;;;3.40;1.83;;;6.10;99.90;;;;;;5049518;28;20101;-62
2023/10/28 13:26:10;;;;;;;3.00;2.00;;;6.10;99.90;;;;;;5049444;28;20071;-64
2023/10/28 13:28:37;;;;;;;1.55;1.45;;;6.10;99.90;;;;;;5053801;28;20554;-61
2023/10/28 13:31:04;;;;;;;3.30;1.20;;;6.10;99.90;;;;;;5050949;28;20049;-63
2023/10/28 13:33:34;;;;;;;2.25;2.05;;;6.10;99.90;;;;;;5049004;28;20052;-62
2023/10/28 13:36:02;;;;;;;1.70;1.60;;;6.10;99.90;;;;;;5054553;28;20072;-63
2023/10/28 13:38:29;;;;;;;2.03;1.65;;;6.10;99.90;;;;;;5046190;28;20476;-62
2023/10/28 13:40:56;;;;;;;1.58;1.45;;;6.00;99.90;;;;;;5053177;28;20549;-63
2023/10/28 13:43:23;;;;;;;2.72;1.83;;;6.00;99.90;;;;;;5049923;28;20075;-62
2023/10/28 13:45:51;;;;;;;2.22;1.50;;;6.00;99.90;;;;;;5051174;28;20110;-62
2023/10/28 13:48:18;;;;;;;1.88;1.73;;;6.00;99.90;;;;;;5051187;28;20488;-64
2023/10/28 13:50:45;;;;;;;3.72;1.83;;;5.90;99.90;;;;;;5055227;28;20048;-62
2023/10/28 13:53:12;;;;;;;2.60;1.75;;;5.90;99.90;;;;;;5048796;28;20049;-63
2023/10/28 13:55:39;;;;;;;4.10;2.17;;;5.90;99.90;;;;;;5051478;28;20052;-63
2023/10/28 13:58:06;;;;;;;4.40;1.70;;;5.90;99.90;;;;;;5046148;28;20091;-66
2023/10/28 14:00:33;;;;;;;3.42;1.58;;;5.90;99.90;;;;;;5049832;28;20049;-63
2023/10/28 14:03:01;;;;;;;2.10;1.92;;;5.80;99.90;;;;;;5050818;28;20045;-64
2023/10/28 14:05:29;;;;;;;2.53;1.77;;;5.80;99.90;;;;;;5050005;28;20123;-62
2023/10/28 14:07:57;;;;;;;2.00;1.70;;;5.70;99.90;;;;;;5055436;28;20132;-61
2023/10/28 14:10:25;;;;;;;2.17;1.98;;;5.70;99.90;;;;;;5053654;28;20061;-63